createdAt,value
2018-07-28T00:01:00.234Z,313.47
2018-07-28T00:03:27.395Z,329.07
2018-07-28T00:05:54.559Z,336.53
2018-07-28T00:08:21.727Z,334.00
2018-07-28T00:10:48.898Z,314.70
2018-07-28T00:13:16.049Z,315.63
2018-07-28T00:15:43.202Z,301.57
2018-07-28T00:18:10.376Z,304.60
2018-07-28T00:20:37.533Z,324.10
2018-07-28T00:23:04.820Z,313.63
2018-07-28T00:25:37.538Z,318.20
2018-07-28T00:28:05.486Z,336.10
2018-07-28T00:30:32.647Z,297.90
2018-07-28T00:32:59.782Z,295.73
2018-07-28T00:35:26.942Z,308.43
2018-07-28T00:37:54.110Z,324.47
2018-07-28T00:40:21.271Z,314.87
2018-07-28T00:42:48.417Z,311.30
2018-07-28T00:45:15.576Z,313.50
2018-07-28T00:47:42.728Z,332.97
2018-07-28T00:50:10.092Z,298.47
2018-07-28T00:52:37.650Z,320.10
2018-07-28T00:55:05.223Z,300.23
2018-07-28T00:57:32.382Z,329.03
2018-07-28T00:59:59.543Z,315.03
2018-07-28T01:02:26.731Z,305.10
2018-07-28T01:04:54.942Z,305.20
2018-07-28T01:07:22.151Z,317.73
2018-07-28T01:09:49.439Z,295.23
2018-07-28T01:12:16.652Z,311.73
2018-07-28T01:14:43.847Z,295.50
2018-07-28T01:17:11.057Z,306.50
2018-07-28T01:19:38.242Z,295.93
2018-07-28T01:22:05.455Z,308.60
2018-07-28T01:24:32.949Z,321.20
2018-07-28T01:27:00.295Z,286.63
2018-07-28T01:29:27.475Z,291.50
2018-07-28T01:31:54.700Z,295.47
2018-07-28T01:34:21.904Z,299.63
2018-07-28T01:36:49.121Z,293.10
2018-07-28T01:39:16.315Z,305.33
2018-07-28T01:41:43.884Z,305.27
2018-07-28T01:44:11.131Z,281.30
2018-07-28T01:46:38.619Z,277.07
2018-07-28T01:49:06.386Z,274.77
2018-07-28T01:51:34.019Z,286.73
2018-07-28T01:54:01.224Z,303.03
2018-07-28T01:56:28.519Z,295.40
2018-07-28T01:58:56.054Z,291.87
2018-07-28T02:01:23.452Z,316.40
2018-07-28T02:03:50.648Z,296.03
2018-07-28T02:06:17.839Z,289.30
2018-07-28T02:08:45.072Z,320.67
2018-07-28T02:11:12.262Z,276.03
2018-07-28T02:13:39.859Z,306.73
2018-07-28T02:16:07.219Z,308.53
2018-07-28T02:18:34.418Z,305.87
2018-07-28T02:21:01.675Z,305.13
2018-07-28T02:23:28.886Z,317.83
2018-07-28T02:25:56.085Z,303.00
2018-07-28T02:28:23.300Z,317.53
2018-07-28T02:30:50.503Z,313.80
2018-07-28T02:33:17.970Z,292.80
2018-07-28T02:35:45.232Z,286.60
2018-07-28T02:38:12.465Z,291.37
2018-07-28T02:40:39.699Z,302.87
2018-07-28T02:43:06.928Z,301.77
2018-07-28T02:45:34.203Z,287.47
2018-07-28T02:48:01.416Z,286.77
2018-07-28T02:50:28.639Z,290.23
2018-07-28T02:52:55.841Z,296.23
2018-07-28T02:55:23.057Z,286.03
2018-07-28T02:57:50.255Z,295.60
2018-07-28T03:00:17.493Z,282.00
2018-07-28T03:02:44.670Z,307.40
2018-07-28T03:05:11.915Z,312.47
2018-07-28T03:07:39.144Z,293.27
2018-07-28T03:10:07.046Z,287.03
2018-07-28T03:12:34.304Z,291.40
2018-07-28T03:15:05.052Z,301.70
2018-07-28T03:17:32.259Z,287.17
2018-07-28T03:19:59.456Z,290.80
2018-07-28T03:22:26.652Z,289.80
2018-07-28T03:24:54.230Z,297.80
2018-07-28T03:27:21.443Z,300.80
2018-07-28T03:29:48.631Z,298.27
2018-07-28T03:32:15.819Z,296.13
2018-07-28T03:34:43.004Z,288.17
2018-07-28T03:37:10.207Z,299.00
2018-07-28T03:39:37.491Z,291.90
2018-07-28T03:42:04.696Z,281.63
2018-07-28T03:44:31.886Z,314.07
2018-07-28T03:46:59.075Z,296.70
2018-07-28T03:49:26.266Z,293.87
2018-07-28T03:51:53.546Z,278.60
2018-07-28T03:54:20.743Z,304.80
2018-07-28T03:56:47.934Z,305.27
2018-07-28T03:59:15.132Z,282.80
2018-07-28T04:01:42.335Z,311.73
2018-07-28T04:04:09.532Z,280.07
2018-07-28T04:06:36.767Z,279.67
2018-07-28T04:09:06.527Z,286.13
2018-07-28T04:11:33.747Z,290.90
2018-07-28T04:14:00.952Z,318.80
2018-07-28T04:16:28.139Z,284.10
2018-07-28T04:18:55.322Z,297.37
2018-07-28T04:21:22.511Z,281.97
2018-07-28T04:23:49.703Z,288.30
2018-07-28T04:26:16.907Z,283.00
2018-07-28T04:28:44.099Z,285.80
2018-07-28T04:31:11.278Z,295.53
2018-07-28T04:33:38.452Z,282.47
2018-07-28T04:36:05.655Z,307.13
2018-07-28T04:38:32.840Z,284.20
2018-07-28T04:41:00.047Z,286.40
2018-07-28T04:43:27.228Z,285.87
2018-07-28T04:45:54.454Z,308.97
2018-07-28T04:48:21.646Z,299.43
2018-07-28T04:50:48.843Z,306.50
2018-07-28T04:53:16.076Z,297.43
2018-07-28T04:55:43.270Z,295.03
2018-07-28T04:58:10.453Z,317.77
2018-07-28T05:00:37.686Z,332.57
2018-07-28T05:03:04.860Z,313.40
2018-07-28T05:05:32.028Z,307.33
2018-07-28T05:07:59.199Z,303.67
2018-07-28T05:10:26.363Z,316.47
2018-07-28T05:12:53.626Z,293.87
2018-07-28T05:15:20.820Z,317.07
2018-07-28T05:17:47.990Z,310.43
2018-07-28T05:20:15.198Z,296.67
2018-07-28T05:22:42.357Z,321.60
2018-07-28T05:25:09.527Z,338.50
2018-07-28T05:27:36.699Z,334.43
2018-07-28T05:30:05.609Z,341.07
2018-07-28T05:32:32.799Z,318.40
2018-07-28T05:34:59.989Z,354.47
2018-07-28T05:37:27.175Z,329.03
2018-07-28T05:39:54.788Z,323.87
2018-07-28T05:42:22.007Z,360.87
2018-07-28T05:44:49.334Z,340.57
2018-07-28T05:47:16.506Z,360.63
2018-07-28T05:49:43.659Z,375.63
2018-07-28T05:52:10.831Z,356.63
2018-07-28T05:54:37.982Z,325.87
2018-07-28T05:57:05.175Z,354.83
2018-07-28T05:59:32.343Z,337.50
2018-07-28T06:01:59.783Z,334.93
2018-07-28T06:04:26.980Z,327.47
2018-07-28T06:06:54.176Z,358.23
2018-07-28T06:09:21.368Z,331.30
2018-07-28T06:11:48.562Z,318.43
2018-07-28T06:14:15.777Z,339.03
2018-07-28T06:16:42.961Z,324.63
2018-07-28T06:19:10.179Z,353.40
2018-07-28T06:21:37.376Z,349.07
2018-07-28T06:24:04.714Z,347.87
2018-07-28T06:26:31.917Z,348.77
2018-07-28T06:28:59.103Z,356.00
2018-07-28T06:31:26.299Z,349.63
2018-07-28T06:33:53.595Z,369.43
2018-07-28T06:36:20.776Z,373.23
2018-07-28T06:38:47.982Z,337.73
2018-07-28T06:41:15.278Z,348.57
2018-07-28T06:43:42.464Z,363.10
2018-07-28T06:46:09.742Z,343.73
2018-07-28T06:48:36.986Z,361.53
2018-07-28T06:51:04.556Z,377.53
2018-07-28T06:53:31.854Z,358.87
2018-07-28T06:55:59.135Z,383.33
2018-07-28T06:58:26.380Z,387.00
2018-07-28T07:00:53.567Z,415.40
2018-07-28T07:03:20.822Z,403.67
2018-07-28T07:05:48.043Z,461.47
2018-07-28T07:08:15.297Z,496.77
2018-07-28T07:10:42.512Z,516.13
2018-07-28T07:13:09.726Z,565.03
2018-07-28T07:15:36.926Z,574.40
2018-07-28T07:18:04.136Z,599.37
2018-07-28T07:20:31.364Z,619.93
2018-07-28T07:22:58.641Z,603.67
2018-07-28T07:25:25.855Z,661.53
2018-07-28T07:27:53.125Z,640.87
2018-07-28T07:30:20.445Z,631.87
2018-07-28T07:32:47.878Z,601.73
2018-07-28T07:35:16.413Z,590.07
2018-07-28T07:37:43.736Z,574.37
2018-07-28T07:40:10.906Z,594.67
2018-07-28T07:42:38.122Z,578.57
2018-07-28T07:45:05.571Z,609.97
2018-07-28T07:47:32.864Z,614.30
2018-07-28T07:49:59.987Z,646.93
2018-07-28T07:52:27.179Z,651.33
2018-07-28T07:54:54.391Z,655.00
2018-07-28T07:57:21.634Z,660.10
2018-07-28T07:59:48.816Z,619.30
2018-07-28T08:02:15.987Z,620.87
2018-07-28T08:04:43.209Z,626.53
2018-07-28T08:07:10.383Z,594.27
2018-07-28T08:09:37.567Z,582.17
2018-07-28T08:12:04.956Z,609.20
2018-07-28T08:14:32.134Z,596.37
2018-07-28T08:16:59.294Z,577.40
2018-07-28T08:19:26.459Z,572.67
2018-07-28T08:21:53.631Z,613.30
2018-07-28T08:24:20.843Z,632.27
2018-07-28T08:26:48.006Z,593.67
2018-07-28T08:29:15.197Z,602.03
2018-07-28T08:31:42.364Z,583.30
2018-07-28T08:34:09.518Z,539.33
2018-07-28T08:36:36.779Z,515.30
2018-07-28T08:39:08.383Z,505.77
2018-07-28T08:41:35.551Z,443.27
2018-07-28T08:44:02.731Z,440.93
2018-07-28T08:46:29.923Z,394.47
2018-07-28T08:48:57.245Z,401.23
2018-07-28T08:51:24.355Z,348.83
2018-07-28T08:53:51.512Z,326.97
2018-07-28T08:56:19.027Z,332.67
2018-07-28T08:58:46.327Z,304.43
2018-07-28T09:01:13.567Z,331.23
2018-07-28T09:03:40.832Z,285.50
2018-07-28T09:06:08.027Z,305.60
2018-07-28T09:08:35.266Z,306.03
2018-07-28T09:11:02.548Z,311.57
2018-07-28T09:13:29.763Z,299.40
2018-07-28T09:15:56.938Z,303.73
2018-07-28T09:18:24.160Z,332.53
2018-07-28T09:20:51.471Z,324.97
2018-07-28T09:23:18.708Z,346.70
2018-07-28T09:25:45.862Z,369.33
2018-07-28T09:28:13.067Z,413.27
2018-07-28T09:30:40.437Z,395.37
2018-07-28T09:33:07.668Z,404.13
2018-07-28T09:35:34.983Z,402.10
2018-07-28T09:38:02.275Z,391.93
2018-07-28T09:40:29.643Z,415.80
2018-07-28T09:42:56.982Z,423.50
2018-07-28T09:45:24.186Z,488.20
2018-07-28T09:47:51.416Z,453.83
2018-07-28T09:50:18.791Z,517.83
2018-07-28T09:52:46.079Z,502.83
2018-07-28T09:55:13.249Z,477.77
2018-07-28T09:57:40.570Z,506.77
2018-07-28T10:00:07.906Z,486.37
2018-07-28T10:02:35.168Z,515.00
2018-07-28T10:05:02.584Z,524.27
2018-07-28T10:07:29.943Z,502.83
2018-07-28T10:09:57.269Z,488.03
2018-07-28T10:12:24.567Z,465.27
2018-07-28T10:14:54.280Z,515.27
2018-07-28T10:17:21.582Z,511.47
2018-07-28T10:19:48.866Z,481.80
2018-07-28T10:22:16.069Z,518.97
2018-07-28T10:24:43.447Z,507.93
2018-07-28T10:27:10.647Z,532.57
2018-07-28T10:29:37.879Z,555.30
2018-07-28T10:32:05.135Z,553.53
2018-07-28T10:34:33.092Z,547.63
2018-07-28T10:37:00.347Z,555.63
2018-07-28T10:39:27.534Z,545.17
2018-07-28T10:41:54.728Z,504.07
2018-07-28T10:44:21.912Z,516.63
2018-07-28T10:46:49.134Z,554.23
2018-07-28T10:49:16.319Z,563.83
2018-07-28T10:51:43.590Z,574.93
2018-07-28T10:54:10.912Z,598.13
2018-07-28T10:56:38.169Z,601.57
2018-07-28T10:59:05.492Z,615.03
2018-07-28T11:01:32.794Z,590.03
2018-07-28T11:04:00.053Z,601.00
2018-07-28T11:06:27.234Z,588.80
2018-07-28T11:08:54.596Z,568.53
2018-07-28T11:11:22.056Z,610.10
2018-07-28T11:13:49.427Z,600.90
2018-07-28T11:16:16.698Z,599.33
2018-07-28T11:18:44.125Z,604.63
2018-07-28T11:21:11.431Z,620.90
2018-07-28T11:23:52.022Z,617.17
2018-07-28T11:26:19.319Z,639.47
2018-07-28T11:28:46.459Z,651.73
2018-07-28T11:31:25.168Z,682.10
2018-07-28T11:34:03.800Z,706.50
2018-07-28T11:36:42.506Z,684.87
2018-07-28T11:39:21.015Z,681.27
2018-07-28T11:41:59.547Z,689.60
2018-07-28T11:44:38.295Z,725.93
2018-07-28T11:47:05.506Z,691.33
2018-07-28T11:49:33.322Z,678.73
2018-07-28T11:52:00.523Z,689.03
2018-07-28T11:54:27.714Z,714.67
2018-07-28T11:56:54.913Z,683.37
2018-07-28T11:59:22.091Z,708.97
2018-07-28T12:01:49.303Z,722.13
2018-07-28T12:04:16.479Z,705.63
2018-07-28T12:06:43.717Z,695.87
2018-07-28T12:09:10.922Z,680.93
2018-07-28T12:11:38.184Z,690.17
2018-07-28T12:14:05.655Z,720.73
2018-07-28T12:16:32.859Z,693.47
2018-07-28T12:19:00.055Z,698.00
2018-07-28T12:21:27.458Z,735.73
2018-07-28T12:23:54.686Z,768.20
2018-07-28T12:26:21.875Z,758.57
2018-07-28T12:28:49.095Z,746.57
2018-07-28T12:31:16.327Z,771.17
2018-07-28T12:33:43.519Z,758.43
2018-07-28T12:36:10.825Z,721.70
2018-07-28T12:38:38.247Z,709.87
2018-07-28T12:41:05.463Z,696.97
2018-07-28T12:43:32.654Z,702.53
2018-07-28T12:45:59.840Z,704.70
2018-07-28T12:48:27.051Z,679.67
2018-07-28T12:50:54.247Z,709.43
2018-07-28T12:53:21.434Z,692.23
2018-07-28T12:55:48.643Z,714.40
2018-07-28T12:58:15.823Z,729.87
2018-07-28T13:00:43.027Z,718.33
2018-07-28T13:03:10.194Z,687.10
2018-07-28T13:05:37.379Z,702.90
2018-07-28T13:08:04.684Z,683.83
2018-07-28T13:10:31.855Z,650.43
2018-07-28T13:12:59.012Z,593.80
2018-07-28T13:15:26.212Z,590.90
2018-07-28T13:17:53.455Z,507.20
2018-07-28T13:20:20.651Z,430.83
2018-07-28T13:22:47.842Z,385.90
2018-07-28T13:25:15.053Z,357.30
2018-07-28T13:27:42.227Z,355.50
2018-07-28T13:30:09.435Z,368.10
2018-07-28T13:32:36.804Z,338.47
2018-07-28T13:35:04.058Z,317.03
2018-07-28T13:37:31.239Z,308.07
2018-07-28T13:39:58.431Z,324.40
2018-07-28T13:42:25.596Z,363.20
2018-07-28T13:44:52.759Z,422.70
2018-07-28T13:47:19.924Z,455.07
2018-07-28T13:49:47.124Z,555.63
2018-07-28T13:52:14.299Z,569.40
2018-07-28T13:54:41.478Z,643.20
2018-07-28T13:57:08.651Z,649.60
2018-07-28T13:59:35.819Z,710.30
2018-07-28T14:02:03.043Z,722.63
2018-07-28T14:04:30.199Z,690.57
2018-07-28T14:06:57.419Z,692.03
2018-07-28T14:09:24.607Z,695.83
2018-07-28T14:11:51.979Z,665.90
2018-07-28T14:14:19.131Z,677.50
2018-07-28T14:16:46.369Z,640.30
2018-07-28T14:19:13.504Z,627.97
2018-07-28T14:21:40.695Z,643.50
2018-07-28T14:24:08.032Z,591.67
2018-07-28T14:26:35.214Z,592.07
2018-07-28T14:29:02.427Z,540.37
2018-07-28T14:31:29.695Z,512.07
2018-07-28T14:33:56.854Z,517.30
2018-07-28T14:36:24.066Z,475.50
2018-07-28T14:38:51.300Z,481.87
2018-07-28T14:41:18.470Z,486.80
2018-07-28T14:43:45.679Z,439.33
2018-07-28T14:46:12.893Z,443.33
2018-07-28T14:48:40.179Z,460.53
2018-07-28T14:51:07.392Z,445.33
2018-07-28T14:53:34.850Z,418.77
2018-07-28T14:56:02.046Z,424.97
2018-07-28T14:58:29.260Z,438.13
2018-07-28T15:00:56.596Z,405.40
2018-07-28T15:03:23.774Z,407.90
2018-07-28T15:05:51.024Z,403.43
2018-07-28T15:08:18.247Z,409.77
2018-07-28T15:10:45.463Z,435.20
2018-07-28T15:13:12.645Z,430.87
2018-07-28T15:15:39.836Z,468.53
2018-07-28T15:18:07.147Z,495.93
2018-07-28T15:20:34.327Z,470.67
2018-07-28T15:23:01.538Z,523.47
2018-07-28T15:25:28.718Z,501.87
2018-07-28T15:27:55.875Z,524.73
2018-07-28T15:30:23.067Z,513.80
2018-07-28T15:32:50.301Z,526.47
2018-07-28T15:35:17.492Z,546.63
2018-07-28T15:37:44.662Z,577.33
2018-07-28T15:40:11.826Z,575.23
2018-07-28T15:42:38.984Z,596.47
2018-07-28T15:45:06.219Z,574.07
2018-07-28T15:47:33.382Z,576.43
2018-07-28T15:50:00.547Z,580.57
2018-07-28T15:52:27.819Z,618.03
2018-07-28T15:54:54.991Z,603.10
2018-07-28T15:57:22.165Z,602.03
2018-07-28T15:59:49.371Z,628.80
2018-07-28T16:02:16.570Z,577.13
2018-07-28T16:04:43.761Z,592.37
2018-07-28T16:07:10.967Z,593.97
2018-07-28T16:09:38.267Z,562.10
2018-07-28T16:12:05.585Z,586.83
2018-07-28T16:14:32.774Z,567.07
2018-07-28T16:16:59.955Z,564.53
2018-07-28T16:19:27.220Z,539.20
2018-07-28T16:21:54.542Z,538.23
2018-07-28T16:24:21.719Z,537.00
2018-07-28T16:26:48.902Z,493.50
2018-07-28T16:29:16.179Z,485.10
2018-07-28T16:31:43.400Z,476.63
2018-07-28T16:34:10.592Z,454.77
2018-07-28T16:36:37.760Z,470.57
2018-07-28T16:39:06.791Z,438.07
2018-07-28T16:41:33.964Z,431.00
2018-07-28T16:44:01.139Z,424.03
2018-07-28T16:46:28.417Z,435.13
2018-07-28T16:48:55.619Z,407.43
2018-07-28T16:51:22.802Z,452.17
2018-07-28T16:53:49.978Z,407.73
2018-07-28T16:56:17.155Z,425.70
2018-07-28T16:58:44.402Z,402.40
2018-07-28T17:01:11.575Z,401.40
2018-07-28T17:03:38.796Z,419.10
2018-07-28T17:06:06.040Z,385.60
2018-07-28T17:08:33.260Z,394.00
2018-07-28T17:11:00.483Z,400.80
2018-07-28T17:13:27.692Z,395.63
2018-07-28T17:15:54.902Z,393.10
2018-07-28T17:18:22.645Z,396.77
2018-07-28T17:20:49.863Z,394.37
2018-07-28T17:23:17.054Z,376.93
2018-07-28T17:25:44.279Z,379.70
2018-07-28T17:28:11.488Z,395.03
2018-07-28T17:30:38.774Z,367.70
2018-07-28T17:33:06.610Z,376.80
2018-07-28T17:35:33.863Z,366.07
2018-07-28T17:38:01.118Z,358.97
2018-07-28T17:40:28.421Z,362.90
2018-07-28T17:42:55.666Z,345.30
2018-07-28T17:45:22.904Z,363.83
2018-07-28T17:47:50.090Z,333.40
2018-07-28T17:50:17.303Z,323.17
2018-07-28T17:52:44.523Z,327.53
2018-07-28T17:55:11.731Z,314.53
2018-07-28T17:57:38.953Z,330.10
2018-07-28T18:00:07.472Z,316.03
2018-07-28T18:02:34.690Z,325.10
2018-07-28T18:05:01.895Z,309.77
2018-07-28T18:07:29.076Z,305.03
2018-07-28T18:09:56.215Z,320.90
2018-07-28T18:12:23.374Z,319.67
2018-07-28T18:14:50.539Z,340.83
2018-07-28T18:17:17.695Z,313.70
2018-07-28T18:19:44.864Z,320.70
2018-07-28T18:22:12.160Z,368.40
2018-07-28T18:24:39.358Z,362.67
2018-07-28T18:27:06.581Z,320.17
2018-07-28T18:29:33.731Z,339.50
2018-07-28T18:32:00.934Z,313.97
2018-07-28T18:34:28.408Z,333.90
2018-07-28T18:36:55.553Z,342.20
2018-07-28T18:39:22.714Z,315.23
2018-07-28T18:41:49.928Z,337.53
2018-07-28T18:44:17.029Z,311.97
2018-07-28T18:46:44.196Z,316.97
2018-07-28T18:49:11.365Z,336.60
2018-07-28T18:51:38.553Z,330.47
2018-07-28T18:54:05.717Z,312.23
2018-07-28T18:56:32.924Z,307.27
2018-07-28T18:59:00.085Z,329.00
2018-07-28T19:01:27.279Z,363.53
2018-07-28T19:03:54.533Z,321.63
2018-07-28T19:06:22.619Z,305.90
2018-07-28T19:08:55.717Z,306.23
2018-07-28T19:11:22.921Z,333.57
2018-07-28T19:13:55.866Z,320.60
2018-07-28T19:16:23.177Z,308.63
2018-07-28T19:18:55.983Z,334.77
2018-07-28T19:21:23.254Z,308.53
2018-07-28T19:23:56.276Z,299.70
2018-07-28T19:26:23.595Z,292.70
2018-07-28T19:28:56.758Z,299.10
2018-07-28T19:31:24.067Z,299.23
2018-07-28T19:33:51.247Z,299.20
2018-07-28T19:36:24.214Z,312.97
2018-07-28T19:38:51.431Z,309.70
2018-07-28T19:41:19.019Z,295.97
2018-07-28T19:43:46.231Z,287.97
2018-07-28T19:46:13.427Z,294.50
2018-07-28T19:48:40.631Z,323.33
2018-07-28T19:51:07.838Z,295.13
2018-07-28T19:53:35.033Z,298.70
2018-07-28T19:56:02.271Z,307.33
2018-07-28T19:58:29.496Z,314.03
2018-07-28T20:00:56.777Z,305.00
2018-07-28T20:03:23.962Z,306.33
2018-07-28T20:05:51.157Z,309.23
2018-07-28T20:08:18.395Z,298.70
2018-07-28T20:10:45.574Z,316.27
2018-07-28T20:13:12.791Z,319.30
2018-07-28T20:15:40.048Z,300.17
2018-07-28T20:18:07.238Z,306.30
2018-07-28T20:20:34.430Z,307.40
2018-07-28T20:23:01.669Z,292.77
2018-07-28T20:25:28.874Z,310.93
2018-07-28T20:27:56.079Z,289.53
2018-07-28T20:30:23.308Z,289.87
2018-07-28T20:32:50.583Z,284.33
2018-07-28T20:35:17.811Z,309.50
2018-07-28T20:37:45.029Z,278.43
2018-07-28T20:40:12.251Z,276.87
2018-07-28T20:42:39.703Z,272.27
2018-07-28T20:45:06.899Z,275.47
2018-07-28T20:47:34.222Z,279.97
2018-07-28T20:50:01.451Z,262.60
2018-07-28T20:52:28.651Z,266.13
2018-07-28T20:54:55.848Z,271.03
2018-07-28T20:57:23.062Z,271.57
2018-07-28T20:59:50.259Z,280.73
2018-07-28T21:02:17.643Z,287.73
2018-07-28T21:04:44.832Z,260.87
2018-07-28T21:07:12.048Z,270.77
2018-07-28T21:09:39.368Z,294.67
2018-07-28T21:12:06.608Z,263.67
2018-07-28T21:14:33.790Z,274.97
2018-07-28T21:17:01.003Z,282.13
2018-07-28T21:19:28.187Z,273.20
2018-07-28T21:21:55.396Z,269.97
2018-07-28T21:24:22.594Z,289.03
2018-07-28T21:26:49.794Z,274.07
2018-07-28T21:29:17.003Z,263.23
2018-07-28T21:31:44.186Z,266.13
2018-07-28T21:34:11.392Z,257.93
2018-07-28T21:36:38.592Z,259.83
2018-07-28T21:39:06.990Z,257.77
2018-07-28T21:41:34.278Z,265.33
2018-07-28T21:44:01.479Z,261.27
2018-07-28T21:46:28.662Z,273.63
2018-07-28T21:48:55.838Z,253.70
2018-07-28T21:51:23.011Z,254.90
2018-07-28T21:53:50.230Z,252.57
2018-07-28T21:56:22.028Z,254.90
2018-07-28T21:58:49.243Z,274.07
2018-07-28T22:01:16.439Z,263.03
2018-07-28T22:03:43.626Z,243.33
2018-07-28T22:06:10.822Z,247.17
2018-07-28T22:08:37.979Z,256.87
2018-07-28T22:11:05.227Z,254.80
2018-07-28T22:13:32.544Z,258.90
2018-07-28T22:15:59.971Z,243.20
2018-07-28T22:18:27.286Z,246.47
2018-07-28T22:20:54.471Z,259.07
2018-07-28T22:23:21.679Z,252.13
2018-07-28T22:25:48.867Z,259.50
2018-07-28T22:28:16.215Z,245.47
2018-07-28T22:30:43.375Z,269.63
2018-07-28T22:33:10.648Z,264.47
2018-07-28T22:35:37.940Z,252.43
2018-07-28T22:38:05.271Z,258.83
2018-07-28T22:40:32.454Z,249.07
2018-07-28T22:42:59.628Z,264.00
2018-07-28T22:45:26.894Z,263.57
2018-07-28T22:47:54.086Z,249.63
2018-07-28T22:50:21.262Z,254.23
2018-07-28T22:52:48.420Z,257.00
2018-07-28T22:55:15.723Z,244.20
2018-07-28T22:57:42.913Z,249.03
2018-07-28T23:00:10.102Z,263.10
2018-07-28T23:02:37.361Z,246.67
2018-07-28T23:05:05.052Z,260.60
2018-07-28T23:07:32.223Z,272.40
2018-07-28T23:09:59.447Z,276.17
2018-07-28T23:12:26.630Z,271.50
2018-07-28T23:14:53.811Z,246.53
2018-07-28T23:17:21.008Z,269.93
2018-07-28T23:19:48.195Z,258.03
2018-07-28T23:22:15.390Z,264.80
2018-07-28T23:24:42.580Z,260.97
2018-07-28T23:27:09.763Z,275.57
2018-07-28T23:29:36.975Z,283.13
2018-07-28T23:32:04.179Z,266.20
2018-07-28T23:34:31.408Z,260.73
2018-07-28T23:36:58.679Z,261.00
2018-07-28T23:39:25.985Z,266.13
2018-07-28T23:41:53.236Z,287.10
2018-07-28T23:44:20.571Z,265.20
2018-07-28T23:46:47.932Z,262.60
2018-07-28T23:49:15.116Z,251.43
2018-07-28T23:51:42.372Z,258.93
2018-07-28T23:54:09.723Z,252.00
2018-07-28T23:56:36.939Z,267.90
2018-07-28T23:59:04.333Z,257.57
